Webcam Flughafen St.Gallen-Altenrhein

Live-Bilder und Zeitraffer LSZR / ACH.

 

Live aus Altenrhein
LIVE
LSZR 221320Z 31003KT 240V350 8000 BKN016 M00/M04 Q1008 NOSIG RMK J
Zeitraffer heute
2019-01-22 00:14:16
LSZR 212250Z AUTO VRB01KT 4900 BR OVC011 M00/M02 Q1018
Zeitraffer gestern
2019-01-21 00:14:24
LSZR 202250Z AUTO VRB01KT 4700 BR OVC060 M02/M03 Q1017
Zeitraffer vor 3 Tagen
2019-01-19 00:14:58
LSZR 182250Z AUTO 11004KT CAVOK M02/M06 Q1016